ADDS METAR Data INFO
IDs: Format: Raw Decoded Include TAF

Data at: 1412 UTC 12 Dec 2017

KGNV 121353Z 22004KT 10SM CLR 11/10 A3003 RMK AO2 SLP168 T01110100
KGNV 121300Z 00000KT 5SM BR CLR 05/05 A3004 RMK AO2 T00500050
KGNV 121253Z 00000KT 2 1/2SM BR CLR 04/04 A3003 RMK AO2 SLP171 T00390039
KGNV 121250Z 00000KT 1SM BR CLR 03/03 A3003 RMK AO2
KGNV 121239Z 00000KT 1/4SM FG CLR 03/03 A3004 RMK AO2 T00280028
KGNV 121232Z 00000KT 1/2SM FG VV003 03/03 A3004 RMK AO2 T00280028
KGNV 121225Z 00000KT 1SM BR VV003 03/03 A3003 RMK AO2 VIS 1/2V5 T00280028
KGNV 121215Z 00000KT 2SM BR SCT003 03/03 A3004 RMK AO2 T00280028
KGNV 121206Z 00000KT 1SM BR VV002 03/03 A3004 RMK AO2 T00280028
KGNV 121201Z 00000KT 2SM BR SCT003 03/02 A3004 RMK AO2 T00280022
KGNV 121153Z 00000KT 4SM BR BKN003 03/02 A3004 RMK AO2 SLP173 T00280022 10039 20022 56008
KGNV 121137Z 00000KT 10SM BKN003 03/02 A3004 RMK AO2 T00280022
KGNV 121127Z 00000KT 2 1/2SM BR BKN003 02/02 A3004 RMK AO2 T00220017
KGNV 121102Z AUTO 00000KT 10SM SCT001 02/02 A3004 RMK AO2 T00220017
KGNV 121053Z AUTO 00000KT 10SM BKN001 03/02 A3005 RMK AO2 SLP176 T00280022
KGNV 121044Z AUTO 00000KT 10SM BKN001 03/02 A3005 RMK AO2 T00280022
KGNV 121040Z AUTO 00000KT 10SM SCT002 03/02 A3005 RMK AO2 T00280022
KGNV 120953Z AUTO 00000KT 10SM CLR 03/02 A3006 RMK AO2 SLP178 T00280022
KGNV 120853Z AUTO 00000KT 10SM CLR 03/03 A3007 RMK AO2 SLP181 T00330028 58018
KGNV 120753Z AUTO 00000KT 10SM CLR 03/03 A3008 RMK AO2 SLP188 T00330033
KGNV 120653Z AUTO 00000KT 10SM CLR 03/02 A3011 RMK AO2 SLP195 T00330022
KGNV 120553Z AUTO 00000KT 10SM CLR 03/02 A3012 RMK AO2 SLP200 T00280022 10094 20022 58018
KGNV 120453Z AUTO 00000KT 10SM CLR 02/02 A3014 RMK AO2 SLP207 T00220017 401611022
KGNV 120353Z AUTO 00000KT 10SM CLR 03/03 A3017 RMK AO2 SLP216 T00330028
KGNV 120253Z AUTO 00000KT 10SM CLR 04/02 A3017 RMK AO2 SLP218 T00440022 58005
KGNV 120153Z AUTO 00000KT 10SM CLR 06/02 A3018 RMK AO2 SLP221 T00560022
KGNV 120053Z AUTO 23004KT 10SM CLR 08/02 A3019 RMK AO2 SLP225 T00780017
KGNV 112353Z AUTO 24006KT 10SM CLR 09/02 A3019 RMK AO2 SLP224 T00890017 10161 20061 53005
KGNV 112253Z AUTO 24003KT 10SM CLR 10/01 A3019 RMK AO2 SLP223 T01000011
KGNV 112153Z AUTO 26005KT 10SM CLR 14/M01 A3017 RMK AO2 SLP218 T01391011
KGNV 112053Z AUTO 25009KT 10SM CLR 16/M02 A3017 RMK AO2 SLP218 T01561022 56021
KGNV 111953Z 24008KT 10SM CLR 16/M03 A3019 RMK AO2 SLP224 T01561033
KGNV 111853Z 28006KT 10SM CLR 16/M03 A3020 RMK AO2 SLP228 T01561028
KGNV 111753Z 26008G19KT 10SM CLR 14/M01 A3024 RMK AO2 SLP239 T01441006 10150 21017 58030
KGNV 111653Z VRB03KT 10SM CLR 13/00 A3028 RMK AO2 SLP253 T01330000
KGNV 111553Z 33005KT 10SM CLR 12/M01 A3031 RMK AO2 SLP263 T01171006
KGNV 111453Z 32006KT 10SM CLR 09/00 A3032 RMK AO2 SLP271 T00940000 50000
KGNV 111353Z 32005KT 10SM CLR 06/01 A3033 RMK AO2 SLP273 T00610006
KGNV 111253Z 00000KT 10SM CLR 00/M01 A3033 RMK AO2 SLP273 T00001006 $
KGNV 111153Z 32004KT 10SM CLR M01/M02 A3033 RMK AO2 SLP272 T10111017 10028 21022 53000 $
KGNV 111053Z AUTO 00000KT 10SM CLR M02/M02 A3031 RMK AO2 SLP267 T10171022 $
KGNV 110953Z AUTO 31004KT 10SM CLR M01/M02 A3031 RMK AO2 SLP267 T10111022 $
KGNV 110853Z AUTO 31004KT 10SM CLR M01/M01 A3032 RMK AO2 SLP269 T10061011 55004 $
KGNV 110753Z AUTO 32004KT 10SM CLR 01/01 A3032 RMK AO2 SLP267 T00110006 $
KGNV 110653Z AUTO 33003KT 10SM CLR 00/M01 A3033 RMK AO2 SLP272 T00001011 $
KGNV 110553Z AUTO 31005KT 10SM CLR 02/01 A3034 RMK AO2 SLP274 T00220011 10039 20000 57000 $
KGNV 110453Z AUTO 00000KT 10SM CLR 01/M01 A3033 RMK AO2 SLP273 T00061006 401221006 $
KGNV 110353Z AUTO 29004KT 10SM CLR 01/00 A3034 RMK AO2 SLP276 T00110000 $
KGNV 110253Z 29005KT 10SM CLR 01/M01 A3034 RMK AO2 SLP275 T00061006 51008 $